Estación Meteorológica Peña el Pijo (Robertgarden) [ 02/03/23 03:46:11 CET ]

Fecha Hora Presion(HPa) Temp (°C) Humedad % Rocio (°C) Viento ( m/s) Direccion Lluvia 1Hora(mm) Lluvia 24H(mm) LLuvia Total(mm)
2012-Sep-30 01:01:17 1009.500 8.4 91 7.0         178.19
2012-Sep-30 02:01:11 1009.700 8.1 92 6.9         178.19
2012-Sep-30 03:04:23 1009.400 7.9 92 6.7         178.19
2012-Sep-30 04:01:13 1009.100 10.1 93 9.0         178.19
2012-Sep-30 05:01:21 1009.200 10.4 94 9.4         178.19
2012-Sep-30 06:01:16 1009.300 9.4 93 8.3         178.19
2012-Sep-30 07:01:12 1009.700 8.1 93 7.0         178.19
2012-Sep-30 08:01:18 1009.900 7.3 93 6.2         178.19
2012-Sep-30 09:01:14 1010.600 7.2 93 6.2         178.19
2012-Sep-30 10:01:16 1011.100 12.9 85 10.4         178.19
2012-Sep-30 11:01:13 1011.400 15.8 65 9.2         178.19
2012-Sep-30 12:01:18 1011.300 17.3 53 7.6         178.19
2012-Sep-30 13:01:13 1011.100 19.3 48 8.0         178.19
2012-Sep-30 14:01:14 1010.600 21.6 39 7.0         178.19
2012-Sep-30 15:01:14 1010.200 22.9 34 6.1         178.19
2012-Sep-30 16:01:14 1010.200 23.9 34 7.0         178.19
2012-Sep-30 17:01:17 1010.000 23.8 34 6.9         178.19
2012-Sep-30 18:01:16 1010.100 21.2 40 7.1         178.19
2012-Sep-30 19:01:16 1010.500 18.2 55 8.9         178.19
2012-Sep-30 20:01:13 1011.300 16.1 62 8.8         178.19
2012-Sep-30 21:01:13 1012.000 14.6 67 8.5         178.19
2012-Sep-30 22:01:13 1012.800 13.6 67 7.6         178.19

Temperatura Máxima:23°    Temperatura Mínima:
Presión Máxima:1012.800 Hpa    Presión Mínima:1009.100 Hpa


Volver